• Join FlightAware (Why Join?)
  • Login
  • US Flag 
12:28AM EDT


 

Airport Tracker/Info


-or-


 

Live Flight TrackerFlight Track Log ✈ WJA1461 ✈ 03-May-2013 ✈ KLAS - CYYC

Flight Track Log - Related Links

Times and Time Zones

All times are in EDT time to prevent confusion due to time zone crossing. See the WJA1461 flight status page for this flight to view local times or setup timezone preferences in your user account.

Time Position Orientation Groundspeed Altitude Reporting Facility
EDT Latitude Longitude Course Direction KTS MPH feet Rate Location/Type
02:30PM 36.0747 -115.1819 273° West 187 215 3,100  Level Los Angeles Center
02:31PM 36.0769 -115.2317 273° West 208 239 4,200 1,860 Climbing Los Angeles Center
02:32PM 36.1142 -115.2903 308° West 248 285 6,600 2,340 Climbing Los Angeles Center
02:33PM 36.1650 -115.2694 18° North 245 282 8,700 1,980 Climbing Los Angeles Center
02:34PM 36.1942 -115.1853 67° East 280 322 10,300 1,320 Climbing Los Angeles Center
02:34PM 36.1969 -115.1750 71° East 264 304 10,400 1,200 Climbing Los Angeles Center
02:35PM 36.1969 -115.0342 90° East 338 389 11,900 1,680 Climbing Los Angeles Center
02:36PM 36.1983 -114.9053 89° East 370 426 14,000 2,160 Climbing Los Angeles Center
02:37PM 36.2158 -114.7744 81° East 398 458 16,400 2,100 Climbing Los Angeles Center
02:38PM 36.2983 -114.6875 40° Northeast 397 457 18,400 1,980 Climbing Los Angeles Center
02:39PM 36.3875 -114.6025 37° Northeast 404 465 20,600 1,920 Climbing Los Angeles Center
02:40PM 36.4803 -114.5144 37° Northeast 416 479 22,400 1,800 Climbing Los Angeles Center
02:41PM 36.5986 -114.4111 35° Northeast 433 498 24,400 1,740 Climbing Los Angeles Center
02:42PM 36.7031 -114.3322 31° Northeast 438 504 26,000 1,380 Climbing Los Angeles Center
02:43PM 36.8083 -114.2494 32° Northeast 445 512 27,300 1,200 Climbing Los Angeles Center
02:44PM 36.9167 -114.1656 32° Northeast 456 525 28,500 1,260 Climbing Los Angeles Center
02:45PM 37.0264 -114.0806 32° Northeast 462 532 30,000 1,440 Climbing Los Angeles Center
02:46PM 37.1422 -113.9897 32° Northeast 460 529 31,500 1,200 Climbing Salt Lake Center
02:47PM 37.2508 -113.9058 32° Northeast 458 527 32,600 1,020 Climbing Salt Lake Center
02:48PM 37.3597 -113.8194 32° Northeast 460 529 33,600 1,080 Climbing Salt Lake Center
02:49PM 37.4906 -113.7147 32° Northeast 462 532 34,900 660 Climbing Salt Lake Center
02:50PM 37.5983 -113.6286 32° Northeast 460 529 35,000  Climbing Salt Lake Center
02:51PM 37.7064 -113.5422 32° Northeast 458 527 35,000  Level Salt Lake Center
02:52PM 37.8142 -113.4547 33° Northeast 457 526 35,000  Level Salt Lake Center
02:53PM 37.9222 -113.3692 32° Northeast 456 525 35,000  Level Salt Lake Center
02:54PM 38.0311 -113.2828 32° Northeast 457 526 35,000  Level Salt Lake Center
02:56PM 38.1383 -113.1947 33° Northeast 457 526 35,000  Level Salt Lake Center
02:57PM 38.2469 -113.1075 32° Northeast 459 528 35,000  Level Salt Lake Center
02:58PM 38.3544 -113.0219 32° Northeast 455 524 35,000  Level Salt Lake Center
02:59PM 38.4994 -112.9781 13° North 444 511 35,000  Level Salt Lake Center
03:00PM 38.6214 -112.9461 12° North 444 511 35,000  Level Salt Lake Center
03:01PM 38.7433 -112.9144 11° North 445 512 35,000  Level Salt Lake Center
03:02PM 38.8658 -112.9025 North 440 506 35,000 -300 Level Salt Lake Center
03:03PM 38.9894 -112.8744 10° North 447 514 34,400 -540 Descending Salt Lake Center
03:04PM 39.1125 -112.8378 13° North 452 520 34,000 -240 Descending Salt Lake Center
03:05PM 39.2356 -112.8019 13° North 452 520 34,000  Level Salt Lake Center
03:06PM 39.3839 -112.7575 13° North 454 522 34,000 240 Level Salt Lake Center
03:07PM 39.5064 -112.7211 13° North 453 521 34,500 480 Climbing Salt Lake Center
03:08PM 39.6311 -112.6833 13° North 459 528 35,000 240 Climbing Salt Lake Center
03:09PM 39.7569 -112.6467 13° North 458 527 35,000  Level Salt Lake Center
03:10PM 39.8808 -112.6092 13° North 458 527 35,000  Level Salt Lake Center
03:11PM 40.0050 -112.5972 North 446 513 35,000  Level Salt Lake Center
03:12PM 40.1289 -112.5975 360° North 444 511 35,000  Level Salt Lake Center
03:13PM 40.2531 -112.5983 360° North 447 514 35,000  Level Salt Lake Center
03:14PM 40.4014 -112.5978 360° North 445 512 35,000  Level Salt Lake Center
03:15PM 40.5275 -112.5986 360° North 450 518 35,000  Level Salt Lake Center
03:16PM 40.6542 -112.6003 359° North 453 521 35,000  Level Salt Lake Center
03:17PM 40.7797 -112.6014 360° North 450 518 35,000  Level Salt Lake Center
03:18PM 40.9061 -112.6019 360° North 451 519 35,000  Level Salt Lake Center
03:19PM 41.0328 -112.6017 360° North 453 521 35,000  Level Salt Lake Center
03:20PM 41.1586 -112.6025 360° North 451 519 35,000  Level Salt Lake Center
03:21PM 41.2856 -112.6028 360° North 453 521 35,000  Level Salt Lake Center
03:22PM 41.4381 -112.6047 359° North 455 524 35,000  Level Salt Lake Center
03:23PM 41.5647 -112.6047 360° North 455 524 35,000  Level Salt Lake Center
03:24PM 41.6917 -112.6069 359° North 455 524 35,000  Level Salt Lake Center
03:25PM 41.8167 -112.6064 360° North 450 518 35,000  Level Salt Lake Center
03:26PM 41.9461 -112.6081 359° North 460 529 35,000  Level Salt Lake Center
03:27PM 42.0742 -112.6075 360° North 460 529 35,000  Level Salt Lake Center
03:28PM 42.2008 -112.6078 360° North 456 525 35,000  Level Salt Lake Center
03:29PM 42.3278 -112.6086 360° North 457 526 35,000  Level Salt Lake Center
03:31PM 42.4814 -112.6106 359° North 459 528 35,000  Level Salt Lake Center
03:32PM 42.6103 -112.6108 360° North 462 532 35,000  Level Salt Lake Center
03:33PM 42.7419 -112.6125 359° North 457 526 35,000  Level Salt Lake Center
03:34PM 42.8644 -112.6142 359° North 456 525 35,000  Level Salt Lake Center
03:35PM 43.0067 -112.6144 360° North 458 527 35,000  Level Salt Lake Center
03:36PM 43.1275 -112.6156 360° North 455 524 35,000  Level Salt Lake Center
03:37PM 43.2494 -112.6164 360° North 455 524 35,000  Level Salt Lake Center
03:38PM 43.3914 -112.6175 360° North 456 525 35,000  Level Salt Lake Center
03:39PM 43.5133 -112.6178 360° North 456 525 35,000  Level Salt Lake Center
03:40PM 43.6550 -112.6167 360° North 455 524 35,000  Level Salt Lake Center
03:41PM 43.7764 -112.6194 359° North 454 522 35,000  Level Salt Lake Center
03:42PM 43.9214 -112.6222 359° North 463 533 35,000  Level Salt Lake Center
03:43PM 44.0431 -112.6228 360° North 460 529 35,000  Level Salt Lake Center
03:44PM 44.1647 -112.6239 360° North 455 524 35,000  Level Salt Lake Center
03:45PM 44.3056 -112.6236 360° North 453 521 35,000  Level Salt Lake Center
03:46PM 44.4272 -112.6258 359° North 454 522 35,000  Level Salt Lake Center
03:47PM 44.5683 -112.6269 360° North 455 524 35,000  Level Salt Lake Center
03:48PM 44.6881 -112.6272 360° North 449 517 35,000  Level Salt Lake Center
03:49PM 44.8106 -112.6286 360° North 455 524 35,000  Level Salt Lake Center
03:50PM 44.9519 -112.6300 360° North 454 522 35,000  Level Salt Lake Center
03:51PM 45.0728 -112.6300 360° North 452 520 35,000  Level Salt Lake Center
03:52PM 45.1936 -112.6308 360° North 452 520 35,000  Level Salt Lake Center
03:53PM 45.3347 -112.6325 360° North 452 520 35,000  Level Salt Lake Center
03:54PM 45.4664 -112.6342 359° North 448 516 35,000  Level Salt Lake Center
03:55PM 45.5939 -112.6350 360° North 451 519 35,000  Level Salt Lake Center
03:56PM 45.7203 -112.6367 359° North 454 522 35,000  Level Salt Lake Center
03:57PM 45.8464 -112.6364 360° North 452 520 35,000  Level Salt Lake Center
03:58PM 45.9714 -112.6381 359° North 449 517 35,000  Level Salt Lake Center
03:59PM 46.0969 -112.6394 360° North 447 514 35,000  Level Salt Lake Center
04:00PM 46.2217 -112.6406 360° North 446 513 35,000  Level Salt Lake Center
04:01PM 46.3447 -112.6419 360° North 442 509 35,000  Level Salt Lake Center
04:02PM 46.4794 -112.6408 360° North 453 521 35,000  Level Salt Lake Center
04:03PM 46.6031 -112.6431 359° North 446 513 35,000  Level Salt Lake Center
04:04PM 46.7278 -112.6431 360° North 448 516 35,000  Level Salt Lake Center
04:05PM 46.8517 -112.6439 360° North 445 512 35,000  Level Salt Lake Center
04:06PM 46.9783 -112.6433 360° North 450 518 35,000  Level Salt Lake Center
04:07PM 47.1286 -112.6467 359° North 450 518 35,000  Level Salt Lake Center
04:08PM 47.2525 -112.6464 360° North 448 516 35,000  Level Salt Lake Center
04:09PM 47.3750 -112.6458 360° North 442 509 35,000  Level Salt Lake Center
04:11PM 47.5019 -112.6500 359° North 449 517 35,000  Level Salt Lake Center
04:12PM 47.6275 -112.6511 360° North 451 519 35,000  Level Salt Lake Center
04:13PM 47.7525 -112.6525 360° North 448 516 35,000  Level Salt Lake Center
04:14PM 47.8761 -112.6528 360° North 455 524 35,000  Level Salt Lake Center
04:15PM 48.0014 -112.6547 359° North 455 524 35,000  Level Salt Lake Center
04:16PM 48.1500 -112.6550 360° North 451 519 35,000  Level Salt Lake Center
04:17PM 48.2744 -112.6567 359° North 451 519 35,000  Level Salt Lake Center
04:18PM 48.4006 -112.6575 360° North 452 520 35,000  Level Salt Lake Center
04:19PM 48.5236 -112.6581 360° North 449 517 35,000  Level Salt Lake Center
04:20PM 48.6478 -112.6606 359° North 450 518 35,000  Level Salt Lake Center
04:21PM 48.7714 -112.6611 360° North 447 514 35,000  Level Salt Lake Center
04:22PM 48.8931 -112.6625 360° North 442 509 35,000  Level Salt Lake Center
04:22PM 48.9333 -112.6833 341° North 440 506 35,000  Level Edmonton Center
04:23PM 49.0667 -112.6833 360° North 440 506 35,000  Level Edmonton Center
04:24PM 49.2000 -112.6667 North 440 506 35,000  Level Edmonton Center
04:25PM 49.3167 -112.6667 360° North 440 506 35,000 -60 Level Edmonton Center
04:26PM 49.4333 -112.6833 355° North 440 506 34,900 -900 Descending Edmonton Center
04:27PM 49.5500 -112.6833 360° North 430 495 33,200 -1,860 Descending Edmonton Center
04:28PM 49.6667 -112.7333 344° North 420 483 31,200 -1,560 Descending Edmonton Center
04:29PM 49.7667 -112.8167 332° Northwest 420 483 30,100 -1,740 Descending Edmonton Center
04:30PM 49.8833 -112.9000 335° Northwest 430 495 27,800 -2,280 Descending Edmonton Center
04:31PM 49.9833 -113.0000 327° Northwest 420 483 25,600 -2,160 Descending Edmonton Center
04:32PM 50.0833 -113.0667 337° Northwest 400 460 23,500 -2,220 Descending Edmonton Center
04:33PM 50.1667 -113.1667 322° Northwest 390 449 21,200 -2,100 Descending Edmonton Center
04:34PM 50.2667 -113.2333 337° Northwest 370 426 19,300 -1,800 Descending Edmonton Center
04:35PM 50.3500 -113.3000 333° Northwest 360 414 17,700 -2,040 Descending Edmonton Center
04:36PM 50.4500 -113.3667 337° Northwest 350 403 15,300 -2,160 Descending Edmonton Center
04:37PM 50.5167 -113.4333 328° Northwest 340 391 13,400 -1,680 Descending Edmonton Center
04:38PM 50.6000 -113.5000 333° Northwest 320 368 12,000 -1,020 Descending Edmonton Center
04:39PM 50.6667 -113.5667 328° Northwest 290 334 11,400 -600 Descending Edmonton Center
04:40PM 50.7167 -113.6833 304° West 270 311 10,900 -720 Descending Edmonton Center
04:41PM 50.7667 -113.7833 308° West 270 311 10,000 -1,020 Descending Edmonton Center
04:42PM 50.8000 -113.8667 302° West 250 288 8,900 -960 Descending Edmonton Center
04:43PM 50.8333 -113.9500 302° West 240 276 8,100 -900 Descending Edmonton Center
04:44PM 50.8833 -114.0500 308° West 230 265 7,100 -1,140 Descending Edmonton Center
04:45PM 50.9500 -114.0333 North 210 242 5,900 -1,140 Descending Edmonton Center
04:46PM 51.0000 -114.0500 348° North 180 207 4,900 -900 Descending Edmonton Center
04:47PM 51.0333 -114.0500 360° North 160 184 4,100 -720 Descending Edmonton Center
04:48PM 51.0833 -114.0333 12° North 150 173 3,500 -600 Descending Edmonton Center